Terminal Aerodrome Forecast
Issued by NWS

Home | Current Version | Previous Version | Text Only | Print | Product List | Glossary On
Versions: 1 2 3 4 5 6 7 8 9 10 11 12 13 14
389
FTUS42 KFFC 210520
TAFRYY
TAF
KRYY 210520Z 2106/2206 00000KT P6SM FEW250
     FM211000 00000KT 3SM BR FEW250
      TEMPO 2110/2113 1SM BR SCT002
     FM211400 33004KT P6SM SCT040 SCT150
     FM211800 33005KT P6SM VCSH SCT050 BKN080
     FM220000 35004KT P6SM VCSH BKN060
     FM220300 00000KT P6SM SCT050 BKN150=

USA.gov is the U.S. government's official web portal to all federal, state and local government web resources and services.